Time;durP1;ratioP1;P1;durP2;ratioP2;P2;SDS_P1;SDS_P2;PMS_P1;PMS_P2;Temp;Humidity;BMP_temperature;BMP_pressure;BME280_temperature;BME280_humidity;BME280_pressure;Samples;Min_cycle;Max_cycle;Signal;HPM_P1;HPM_P2
2022/01/22 00:00:31;;;;;;;;;;;-2.80;99.90;;;;;;4176764;28;19935;-49
2022/01/22 00:02:33;;;;;;;;;;;-2.90;99.90;;;;;;4176248;28;19956;-48
2022/01/22 00:04:35;;;;;;;;;;;-2.80;99.90;;;;;;4176743;28;20648;-49
2022/01/22 00:06:37;;;;;;;;;;;-2.60;99.90;;;;;;4177765;28;19948;-48
2022/01/22 00:08:39;;;;;;;;;;;-2.60;99.90;;;;;;4175349;28;20277;-49
2022/01/22 00:10:44;;;;;;;;;;;-2.70;99.90;;;;;;4177857;28;20473;-49
2022/01/22 00:14:51;;;;;;;;;;;-2.80;99.90;;;;;;4176365;28;19931;-51
2022/01/22 00:16:55;;;;;;;;;;;-2.80;99.90;;;;;;4177445;28;19943;-50
2022/01/22 00:18:57;;;;;;;;;;;-2.90;99.90;;;;;;4176187;28;19933;-51
2022/01/22 00:20:59;;;;;;;;;;;-2.90;99.90;;;;;;4176599;28;19925;-48
2022/01/22 00:23:01;;;;;;;;;;;-3.00;99.90;;;;;;4177318;28;19925;-48
2022/01/22 00:25:07;;;;;;;;;;;-3.10;99.90;;;;;;4176013;28;19928;-49
2022/01/22 00:27:09;;;;;;;;;;;-3.00;99.90;;;;;;4176556;28;20003;-48
2022/01/22 00:29:11;;;;;;;;;;;-3.10;99.90;;;;;;4177336;28;19963;-48
2022/01/22 00:31:13;;;;;;;;;;;-3.20;99.90;;;;;;4176658;28;20339;-49
2022/01/22 00:33:16;;;;;;;;;;;-3.20;99.90;;;;;;4175731;28;20015;-50
2022/01/22 00:35:18;;;;;;;;;;;-3.20;99.90;;;;;;4176547;28;20046;-48
2022/01/22 00:37:20;;;;;;;;;;;-3.20;99.90;;;;;;4176823;28;19929;-48
2022/01/22 00:39:22;;;;;;;;;;;-3.10;99.90;;;;;;4176604;28;19948;-49
2022/01/22 00:41:24;;;;;;;;;;;-3.10;99.90;;;;;;4176328;28;19933;-48
2022/01/22 00:43:26;;;;;;;;;;;-3.20;99.90;;;;;;4174390;28;19933;-50
2022/01/22 00:45:28;;;;;;;;;;;-3.20;99.90;;;;;;4160079;28;20031;-50
2022/01/22 00:47:30;;;;;;;;;;;-3.10;99.90;;;;;;4176366;28;20372;-50
2022/01/22 00:49:32;;;;;;;;;;;-3.10;99.90;;;;;;4177443;28;19933;-46
2022/01/22 00:51:34;;;;;;;;;;;-3.30;99.90;;;;;;4175475;28;19924;-49
2022/01/22 00:53:36;;;;;;;;;;;-3.20;99.90;;;;;;4176350;28;19937;-49
2022/01/22 00:55:38;;;;;;;;;;;-3.10;99.90;;;;;;4174761;28;19929;-50
2022/01/22 00:57:40;;;;;;;;;;;-3.20;99.90;;;;;;4177514;28;19932;-49
2022/01/22 00:59:42;;;;;;;;;;;-3.10;99.90;;;;;;4175255;28;19941;-50
2022/01/22 01:01:44;;;;;;;;;;;-3.20;99.90;;;;;;4177517;28;19933;-46
2022/01/22 01:03:46;;;;;;;;;;;-3.10;99.90;;;;;;4158484;28;19935;-49
2022/01/22 01:05:48;;;;;;;;;;;-3.00;99.90;;;;;;4177100;28;20019;-47
2022/01/22 01:07:50;;;;;;;;;;;-3.00;99.90;;;;;;4175770;28;19925;-46
2022/01/22 01:09:52;;;;;;;;;;;-3.10;99.90;;;;;;4176916;28;20400;-48
2022/01/22 01:11:59;;;;;;;;;;;-3.10;99.90;;;;;;4174700;28;19956;-48
2022/01/22 01:14:03;;;;;;;;;;;-3.10;99.90;;;;;;4176014;28;20427;-50
2022/01/22 01:32:10;;;;;;;;;;;-3.30;99.90;;;;;;4174800;28;20422;-50
2022/01/22 01:34:58;;;;;;;;;;;-3.20;99.90;;;;;;4176507;28;19929;-47
2022/01/22 01:37:00;;;;;;;;;;;-3.30;99.90;;;;;;4175137;28;20367;-49
2022/01/22 01:39:05;;;;;;;;;;;-3.30;99.90;;;;;;4176334;28;19935;-48
2022/01/22 01:41:17;;;;;;;;;;;-3.20;99.90;;;;;;4174940;28;19928;-49
2022/01/22 01:43:25;;;;;;;;;;;-3.30;99.90;;;;;;4176628;28;19968;-48
2022/01/22 01:45:28;;;;;;;;;;;-3.50;99.90;;;;;;4175503;28;20304;-48
2022/01/22 01:47:30;;;;;;;;;;;-3.60;99.90;;;;;;4172658;28;20128;-46
2022/01/22 01:49:31;;;;;;;;;;;-3.60;99.90;;;;;;4175580;28;20452;-50
2022/01/22 01:51:35;;;;;;;;;;;-3.70;99.90;;;;;;4175827;28;20051;-50
2022/01/22 01:58:00;;;;;;;;;;;-3.70;99.90;;;;;;4175444;28;20640;-50
2022/01/22 02:00:02;;;;;;;;;;;-3.70;99.90;;;;;;4175552;28;19925;-51
2022/01/22 02:02:05;;;;;;;;;;;-3.70;99.90;;;;;;4176146;28;19994;-50
2022/01/22 02:04:09;;;;;;;;;;;-3.70;99.90;;;;;;4174865;28;19928;-46
2022/01/22 02:06:11;;;;;;;;;;;-3.80;99.90;;;;;;4176978;28;20011;-49
2022/01/22 02:08:15;;;;;;;;;;;-3.80;99.90;;;;;;4177902;28;20350;-49
2022/01/22 02:10:22;;;;;;;;;;;-3.90;99.90;;;;;;4178472;28;19924;-51
2022/01/22 02:23:33;;;;;;;;;;;-3.80;99.90;;;;;;4165771;28;20401;-49
2022/01/22 02:23:55;;;;;;;;;;;-3.90;99.90;;;;;;4169539;28;19929;-50
2022/01/22 02:25:58;;;;;;;;;;;-3.80;99.90;;;;;;4177206;28;19979;-49
2022/01/22 02:28:01;;;;;;;;;;;-3.90;99.90;;;;;;4179218;28;20300;-50
2022/01/22 02:30:03;;;;;;;;;;;-3.90;99.90;;;;;;4178586;28;20270;-51
2022/01/22 02:34:31;;;;;;;;;;;-3.90;99.90;;;;;;4178587;28;20007;-50
2022/01/22 02:36:39;;;;;;;;;;;-3.90;99.90;;;;;;4176951;28;19960;-51
2022/01/22 02:40:56;;;;;;;;;;;-4.00;99.90;;;;;;4174034;28;19933;-49
2022/01/22 02:43:01;;;;;;;;;;;-3.80;99.90;;;;;;4179415;28;19929;-49
2022/01/22 02:45:08;;;;;;;;;;;-3.70;99.90;;;;;;4175421;28;20016;-46
2022/01/22 02:47:10;;;;;;;;;;;-3.70;99.90;;;;;;4161373;28;19925;-50
2022/01/22 02:49:11;;;;;;;;;;;-3.70;99.90;;;;;;4177404;28;19925;-50
2022/01/22 02:51:14;;;;;;;;;;;-3.70;99.90;;;;;;4178956;28;20682;-50
2022/01/22 02:53:16;;;;;;;;;;;-3.90;99.90;;;;;;4177219;28;19925;-46
2022/01/22 02:55:18;;;;;;;;;;;-4.00;99.90;;;;;;4179291;28;19929;-48
2022/01/22 02:57:20;;;;;;;;;;;-4.00;99.90;;;;;;4177522;28;19947;-50
2022/01/22 02:59:23;;;;;;;;;;;-3.80;99.90;;;;;;4164050;28;19933;-48
2022/01/22 03:01:25;;;;;;;;;;;-3.70;99.90;;;;;;4176740;28;20599;-50
2022/01/22 03:03:27;;;;;;;;;;;-3.80;99.90;;;;;;4177828;28;20027;-50
2022/01/22 03:05:29;;;;;;;;;;;-3.70;99.90;;;;;;4176165;28;20376;-50
2022/01/22 03:07:31;;;;;;;;;;;-3.80;99.90;;;;;;4178694;28;20469;-49
2022/01/22 03:09:40;;;;;;;;;;;-3.90;99.90;;;;;;4177253;28;19929;-49
2022/01/22 03:11:58;;;;;;;;;;;-3.90;99.90;;;;;;4178835;28;20597;-49
2022/01/22 03:14:41;;;;;;;;;;;-3.80;99.90;;;;;;4177709;28;19939;-49
2022/01/22 03:16:51;;;;;;;;;;;-3.90;99.90;;;;;;4177962;28;20027;-50
2022/01/22 03:19:06;;;;;;;;;;;-3.90;99.90;;;;;;4176554;28;19929;-49
2022/01/22 03:28:02;;;;;;;;;;;-3.90;99.90;;;;;;4178586;28;19955;-47
2022/01/22 03:30:05;;;;;;;;;;;-3.90;99.90;;;;;;4176786;28;20020;-50
2022/01/22 03:32:09;;;;;;;;;;;-3.90;99.90;;;;;;4178228;28;19924;-48
2022/01/22 03:34:11;;;;;;;;;;;-3.80;99.90;;;;;;4176305;28;20008;-47
2022/01/22 03:36:14;;;;;;;;;;;-3.90;99.90;;;;;;4178060;28;19928;-46
2022/01/22 03:38:16;;;;;;;;;;;-4.00;99.90;;;;;;4176267;28;19956;-49
2022/01/22 03:40:21;;;;;;;;;;;-4.10;99.90;;;;;;4177924;28;20039;-50
2022/01/22 03:42:23;;;;;;;;;;;-4.20;99.90;;;;;;4177071;28;20384;-49
2022/01/22 03:44:25;;;;;;;;;;;-4.20;99.90;;;;;;4177011;28;19968;-48
2022/01/22 03:46:27;;;;;;;;;;;-4.10;99.90;;;;;;4176522;28;19971;-50
2022/01/22 03:48:29;;;;;;;;;;;-4.20;99.90;;;;;;4177828;28;20015;-47
2022/01/22 03:50:31;;;;;;;;;;;-4.30;99.90;;;;;;4177206;28;19979;-48
2022/01/22 03:52:32;;;;;;;;;;;-4.50;99.90;;;;;;4177353;28;19979;-48
2022/01/22 03:54:35;;;;;;;;;;;-4.60;99.90;;;;;;4177783;28;19929;-48
2022/01/22 03:56:38;;;;;;;;;;;-4.60;99.90;;;;;;4176133;28;20604;-49
2022/01/22 03:58:41;;;;;;;;;;;-4.50;99.90;;;;;;4176909;28;19955;-49
2022/01/22 04:00:43;;;;;;;;;;;-4.30;99.90;;;;;;4174889;28;19933;-50
2022/01/22 04:04:54;;;;;;;;;;;-4.40;99.90;;;;;;4176978;28;19940;-50
2022/01/22 04:07:42;;;;;;;;;;;-4.50;99.90;;;;;;4175860;28;19952;-50
2022/01/22 04:09:41;;;;;;;;;;;-4.50;99.90;;;;;;4173876;28;19933;-50
2022/01/22 04:11:45;;;;;;;;;;;-4.60;99.90;;;;;;4174171;28;19925;-50
2022/01/22 04:13:51;;;;;;;;;;;-4.60;99.90;;;;;;4174551;28;20019;-48
2022/01/22 04:15:53;;;;;;;;;;;-4.60;99.90;;;;;;4183819;28;19959;-50
2022/01/22 04:24:57;;;;;;;;;;;-4.80;99.90;;;;;;4176942;28;19968;-49
2022/01/22 04:27:08;;;;;;;;;;;-4.80;99.90;;;;;;4175578;28;19929;-47
2022/01/22 04:29:10;;;;;;;;;;;-4.70;99.90;;;;;;4176589;28;19939;-48
2022/01/22 04:31:12;;;;;;;;;;;-4.60;99.90;;;;;;4176212;28;19948;-49
2022/01/22 04:33:14;;;;;;;;;;;-4.60;99.90;;;;;;4176012;28;19964;-49
2022/01/22 04:35:17;;;;;;;;;;;-4.50;99.90;;;;;;4176351;28;20366;-49
2022/01/22 04:37:20;;;;;;;;;;;-4.40;99.90;;;;;;4176856;28;20028;-51
2022/01/22 04:39:24;;;;;;;;;;;-4.30;99.90;;;;;;4176950;28;19998;-48
2022/01/22 04:41:26;;;;;;;;;;;-4.30;99.90;;;;;;4174731;28;19929;-49
2022/01/22 04:43:30;;;;;;;;;;;-4.30;99.90;;;;;;4164681;28;19932;-50
2022/01/22 04:45:49;;;;;;;;;;;-4.30;99.90;;;;;;4170179;28;20377;-49
2022/01/22 04:52:39;;;;;;;;;;;-4.60;99.90;;;;;;4176768;28;19951;-50
2022/01/22 04:55:01;;;;;;;;;;;-4.60;99.90;;;;;;4175535;28;20019;-51
2022/01/22 04:57:03;;;;;;;;;;;-4.50;99.90;;;;;;4178369;28;20010;-49
2022/01/22 04:59:05;;;;;;;;;;;-4.60;99.90;;;;;;4175554;28;19934;-50
2022/01/22 05:01:07;;;;;;;;;;;-4.60;99.90;;;;;;4176612;28;20584;-49
2022/01/22 05:03:09;;;;;;;;;;;-4.50;99.90;;;;;;4175424;28;20682;-50
2022/01/22 05:05:11;;;;;;;;;;;-4.40;99.90;;;;;;4176512;28;19964;-49
2022/01/22 05:07:13;;;;;;;;;;;-4.50;99.90;;;;;;4172471;28;19936;-50
2022/01/22 05:09:15;;;;;;;;;;;-4.50;99.90;;;;;;4171885;28;20040;-49
2022/01/22 05:11:18;;;;;;;;;;;-4.60;99.90;;;;;;4175028;28;20391;-49
2022/01/22 05:13:20;;;;;;;;;;;-4.60;99.90;;;;;;4176845;28;19929;-50
2022/01/22 05:15:22;;;;;;;;;;;-4.70;99.90;;;;;;4175615;28;20024;-48
2022/01/22 05:17:24;;;;;;;;;;;-4.70;99.90;;;;;;4174990;28;19925;-47
2022/01/22 05:19:44;;;;;;;;;;;-4.70;99.90;;;;;;4174967;28;20329;-50
2022/01/22 05:21:48;;;;;;;;;;;-4.60;99.90;;;;;;4174598;28;19975;-47
2022/01/22 05:23:51;;;;;;;;;;;-4.70;99.90;;;;;;4176313;28;19971;-50
2022/01/22 05:25:58;;;;;;;;;;;-4.90;99.90;;;;;;4156712;28;20102;-48
2022/01/22 05:37:02;;;;;;;;;;;-5.40;99.90;;;;;;4163457;28;19924;-48
2022/01/22 05:39:09;;;;;;;;;;;-5.30;99.90;;;;;;4174428;28;20528;-49
2022/01/22 05:41:12;;;;;;;;;;;-5.50;99.90;;;;;;4174179;28;20326;-50
2022/01/22 05:43:14;;;;;;;;;;;-5.30;99.90;;;;;;4176311;28;19978;-50
2022/01/22 05:45:16;;;;;;;;;;;-5.30;99.90;;;;;;4176705;28;19979;-51
2022/01/22 05:47:24;;;;;;;;;;;-5.40;99.90;;;;;;4174475;28;20371;-50
2022/01/22 05:49:28;;;;;;;;;;;-5.30;99.90;;;;;;4179372;28;20431;-50
2022/01/22 05:51:30;;;;;;;;;;;-5.20;99.90;;;;;;4175103;28;20432;-48
2022/01/22 06:00:29;;;;;;;;;;;-5.30;99.90;;;;;;4176293;28;20051;-49
2022/01/22 06:02:31;;;;;;;;;;;-5.30;99.90;;;;;;4172965;28;19929;-49
2022/01/22 06:04:33;;;;;;;;;;;-5.30;99.90;;;;;;4176100;28;19925;-50
2022/01/22 06:06:35;;;;;;;;;;;-5.20;99.90;;;;;;4175386;28;19929;-50
2022/01/22 06:08:44;;;;;;;;;;;-5.20;99.90;;;;;;4175764;28;19933;-51
2022/01/22 06:10:53;;;;;;;;;;;-5.20;99.90;;;;;;4174742;28;20438;-50
2022/01/22 06:13:12;;;;;;;;;;;-5.20;99.90;;;;;;4176448;28;19964;-49
2022/01/22 06:15:14;;;;;;;;;;;-5.20;99.90;;;;;;4157519;28;20020;-50
2022/01/22 06:17:15;;;;;;;;;;;-5.20;99.90;;;;;;4175992;28;19928;-49
2022/01/22 06:19:17;;;;;;;;;;;-5.30;99.90;;;;;;4173406;28;19929;-49
2022/01/22 06:21:19;;;;;;;;;;;-5.30;99.90;;;;;;4176083;28;19932;-49
2022/01/22 06:23:21;;;;;;;;;;;-5.40;99.90;;;;;;4174606;28;19933;-50
2022/01/22 06:25:23;;;;;;;;;;;-5.40;99.90;;;;;;4153145;28;19979;-47
2022/01/22 06:27:25;;;;;;;;;;;-5.40;99.90;;;;;;4173411;28;20019;-51
2022/01/22 06:29:27;;;;;;;;;;;-5.40;99.90;;;;;;4186819;28;20367;-49
2022/01/22 06:31:29;;;;;;;;;;;-5.40;99.90;;;;;;4171266;28;19925;-50
2022/01/22 06:33:31;;;;;;;;;;;-5.30;99.90;;;;;;4169470;28;19932;-50
2022/01/22 06:35:33;;;;;;;;;;;-5.30;99.90;;;;;;4168142;28;20444;-47
2022/01/22 06:37:35;;;;;;;;;;;-5.40;99.90;;;;;;4163501;28;20363;-51
2022/01/22 06:40:03;;;;;;;;;;;-5.50;99.90;;;;;;4174822;28;20390;-47
2022/01/22 06:41:59;;;;;;;;;;;-5.50;99.90;;;;;;4174391;28;19932;-47
2022/01/22 06:44:00;;;;;;;;;;;-5.50;99.90;;;;;;4174791;28;20004;-47
2022/01/22 06:46:03;;;;;;;;;;;-5.60;99.90;;;;;;4175668;28;19955;-47
2022/01/22 06:48:04;;;;;;;;;;;-5.60;99.90;;;;;;4175028;28;19999;-46
2022/01/22 06:50:07;;;;;;;;;;;-5.60;99.90;;;;;;4155994;28;19940;-45
2022/01/22 06:52:09;;;;;;;;;;;-5.50;99.90;;;;;;4167555;28;19925;-49
2022/01/22 06:54:12;;;;;;;;;;;-5.40;99.90;;;;;;4172944;28;20396;-48
2022/01/22 06:56:19;;;;;;;;;;;-5.30;99.90;;;;;;4176624;28;20011;-47
2022/01/22 06:58:21;;;;;;;;;;;-5.20;99.90;;;;;;4177463;28;19929;-50
2022/01/22 07:00:23;;;;;;;;;;;-5.20;99.90;;;;;;4177898;28;20280;-49
2022/01/22 07:02:25;;;;;;;;;;;-5.10;99.90;;;;;;4177254;28;19931;-49
2022/01/22 07:04:27;;;;;;;;;;;-5.10;99.90;;;;;;4182178;28;20068;-49
2022/01/22 07:06:29;;;;;;;;;;;-5.10;99.90;;;;;;4185046;28;19970;-50
2022/01/22 07:08:31;;;;;;;;;;;-5.30;99.90;;;;;;4177736;28;19963;-47
2022/01/22 07:10:33;;;;;;;;;;;-5.30;99.90;;;;;;4177865;28;19932;-48
2022/01/22 07:12:35;;;;;;;;;;;-5.30;99.90;;;;;;4179937;28;20293;-47
2022/01/22 07:14:36;;;;;;;;;;;-5.10;99.90;;;;;;4177925;28;20458;-49
2022/01/22 07:16:38;;;;;;;;;;;-5.10;99.90;;;;;;4178547;28;19960;-50
2022/01/22 07:18:40;;;;;;;;;;;-5.10;99.90;;;;;;4155894;28;20027;-48
2022/01/22 07:20:43;;;;;;;;;;;-5.30;99.90;;;;;;4178786;28;19933;-48
2022/01/22 07:22:51;;;;;;;;;;;-5.40;99.90;;;;;;4177476;28;19947;-49
2022/01/22 07:24:53;;;;;;;;;;;-5.50;99.90;;;;;;4178422;28;19967;-47
2022/01/22 07:26:55;;;;;;;;;;;-5.60;99.90;;;;;;4176550;28;19999;-47
2022/01/22 07:28:57;;;;;;;;;;;-5.70;99.90;;;;;;4178507;28;20031;-47
2022/01/22 07:31:00;;;;;;;;;;;-5.70;99.90;;;;;;4177565;28;20023;-47
2022/01/22 07:33:02;;;;;;;;;;;-5.70;99.90;;;;;;4183904;28;19924;-50
2022/01/22 07:35:04;;;;;;;;;;;-5.60;99.90;;;;;;4178240;28;20425;-47
2022/01/22 07:37:06;;;;;;;;;;;-5.50;99.90;;;;;;4166157;28;20019;-49
2022/01/22 07:39:08;;;;;;;;;;;-5.40;99.90;;;;;;4172291;28;19967;-47
2022/01/22 07:41:10;;;;;;;;;;;-5.40;99.90;;;;;;4177962;28;19967;-47
2022/01/22 07:43:12;;;;;;;;;;;-5.30;99.90;;;;;;4176849;28;20381;-50
2022/01/22 07:45:14;;;;;;;;;;;-5.30;99.90;;;;;;4178272;28;19933;-48
2022/01/22 07:47:15;;;;;;;;;;;-5.10;99.90;;;;;;4177257;28;20412;-49
2022/01/22 07:49:19;;;;;;;;;;;-5.00;99.90;;;;;;4164383;28;19939;-49
2022/01/22 07:51:21;;;;;;;;;;;-4.90;99.90;;;;;;4172053;28;20348;-50
2022/01/22 07:53:24;;;;;;;;;;;-4.80;99.90;;;;;;4178663;28;19924;-50
2022/01/22 07:55:26;;;;;;;;;;;-4.70;99.90;;;;;;4175032;28;19937;-50
2022/01/22 07:57:31;;;;;;;;;;;-4.60;99.90;;;;;;4177433;28;19952;-49
2022/01/22 07:59:33;;;;;;;;;;;-4.40;99.90;;;;;;4157686;28;19956;-48
2022/01/22 08:01:35;;;;;;;;;;;-4.10;99.90;;;;;;4177212;28;20015;-49
2022/01/22 08:03:37;;;;;;;;;;;-4.00;99.90;;;;;;4176419;28;19976;-46
2022/01/22 08:05:39;;;;;;;;;;;-4.00;99.90;;;;;;4178452;28;20011;-50
2022/01/22 08:07:44;;;;;;;;;;;-4.00;99.90;;;;;;4175491;28;19936;-48
2022/01/22 08:09:46;;;;;;;;;;;-4.00;99.90;;;;;;4176599;28;19928;-49
2022/01/22 08:11:48;;;;;;;;;;;-3.80;99.90;;;;;;4174726;28;20519;-48
2022/01/22 08:13:50;;;;;;;;;;;-3.70;99.90;;;;;;4178486;28;19929;-48
2022/01/22 08:15:54;;;;;;;;;;;-3.20;99.90;;;;;;4175812;28;20410;-49
2022/01/22 08:17:56;;;;;;;;;;;-3.00;99.90;;;;;;4176776;28;19929;-51
2022/01/22 08:19:58;;;;;;;;;;;-3.00;99.90;;;;;;4174116;28;19940;-50
2022/01/22 08:22:03;;;;;;;;;;;-2.90;99.90;;;;;;4177641;28;20047;-50
2022/01/22 08:24:05;;;;;;;;;;;-2.70;99.90;;;;;;4173598;28;19964;-48
2022/01/22 08:26:09;;;;;;;;;;;-2.60;99.90;;;;;;4176946;28;19975;-50
2022/01/22 08:30:35;;;;;;;;;;;-2.80;99.90;;;;;;4177127;28;19929;-51
2022/01/22 08:37:03;;;;;;;;;;;-3.10;99.90;;;;;;4176011;28;20027;-48
2022/01/22 08:39:05;;;;;;;;;;;-3.20;99.90;;;;;;4177118;28;19928;-48
2022/01/22 08:41:08;;;;;;;;;;;-3.20;99.90;;;;;;4176310;28;20020;-50
2022/01/22 08:43:10;;;;;;;;;;;-3.30;99.90;;;;;;4175782;28;19925;-50
2022/01/22 08:45:12;;;;;;;;;;;-3.20;99.90;;;;;;4176474;28;20016;-49
2022/01/22 08:47:14;;;;;;;;;;;-3.20;99.90;;;;;;4176860;28;19928;-49
2022/01/22 08:49:16;;;;;;;;;;;-3.20;99.90;;;;;;4175894;28;19957;-48
2022/01/22 08:51:18;;;;;;;;;;;-3.30;99.90;;;;;;4175448;28;19932;-48
2022/01/22 08:53:20;;;;;;;;;;;-3.20;99.90;;;;;;4159323;28;20364;-48
2022/01/22 08:55:22;;;;;;;;;;;-3.10;99.90;;;;;;4175938;28;19933;-48
2022/01/22 08:57:24;;;;;;;;;;;-3.10;99.90;;;;;;4176790;28;19928;-48
2022/01/22 08:59:26;;;;;;;;;;;-3.00;99.90;;;;;;4175899;28;20459;-49
2022/01/22 09:01:28;;;;;;;;;;;-3.00;99.90;;;;;;4174483;28;19935;-50
2022/01/22 09:03:31;;;;;;;;;;;-3.00;99.90;;;;;;4176392;28;19964;-49
2022/01/22 09:05:35;;;;;;;;;;;-2.90;99.90;;;;;;4175812;28;20027;-50
2022/01/22 09:07:38;;;;;;;;;;;-2.80;99.90;;;;;;4176378;28;19960;-50
2022/01/22 09:09:40;;;;;;;;;;;-2.70;99.90;;;;;;4176100;28;20397;-49
2022/01/22 09:11:44;;;;;;;;;;;-2.70;99.90;;;;;;4174886;28;19943;-49
2022/01/22 09:13:46;;;;;;;;;;;-2.60;99.90;;;;;;4176197;28;20016;-49
2022/01/22 09:15:48;;;;;;;;;;;-2.60;99.90;;;;;;4174831;28;20027;-50
2022/01/22 09:17:50;;;;;;;;;;;-2.50;99.90;;;;;;4175386;28;20004;-50
2022/01/22 09:19:57;;;;;;;;;;;-2.50;99.90;;;;;;4174990;28;19960;-48
2022/01/22 09:22:00;;;;;;;;;;;-2.30;99.90;;;;;;4176820;28;20074;-50
2022/01/22 09:24:02;;;;;;;;;;;-2.10;99.90;;;;;;4174811;28;19929;-47
2022/01/22 09:26:05;;;;;;;;;;;-2.00;99.90;;;;;;4175434;28;20015;-48
2022/01/22 09:28:07;;;;;;;;;;;-1.90;99.90;;;;;;4176309;28;19982;-50
2022/01/22 09:30:10;;;;;;;;;;;-1.80;99.90;;;;;;4176426;28;19998;-48
2022/01/22 09:32:12;;;;;;;;;;;-1.70;99.90;;;;;;4175461;28;19971;-48
2022/01/22 09:34:14;;;;;;;;;;;-1.60;99.90;;;;;;4176810;28;19935;-51
2022/01/22 09:36:16;;;;;;;;;;;-1.50;99.90;;;;;;4175654;28;19955;-50
2022/01/22 09:38:18;;;;;;;;;;;-1.40;99.90;;;;;;4176173;28;19928;-50
2022/01/22 09:40:20;;;;;;;;;;;-1.30;99.90;;;;;;4175432;28;20023;-50
2022/01/22 09:42:22;;;;;;;;;;;-1.30;99.90;;;;;;4176982;28;19936;-49
2022/01/22 09:44:24;;;;;;;;;;;-1.30;99.90;;;;;;4174673;28;19925;-51
2022/01/22 09:46:27;;;;;;;;;;;-1.20;99.90;;;;;;4176932;28;19929;-52
2022/01/22 09:48:28;;;;;;;;;;;-1.10;99.90;;;;;;4174384;28;19933;-51
2022/01/22 09:50:31;;;;;;;;;;;-1.00;99.90;;;;;;4176943;28;19968;-49
2022/01/22 09:52:33;;;;;;;;;;;-0.90;99.90;;;;;;4175726;28;20002;-50
2022/01/22 09:54:35;;;;;;;;;;;-0.70;99.90;;;;;;4161491;28;19983;-51
2022/01/22 09:56:40;;;;;;;;;;;-0.60;99.90;;;;;;4174277;28;19928;-50
2022/01/22 09:58:47;;;;;;;;;;;-0.50;99.90;;;;;;4176934;28;19943;-51
2022/01/22 10:00:48;;;;;;;;;;;-0.40;99.90;;;;;;4174216;28;19960;-51
2022/01/22 10:02:53;;;;;;;;;;;-0.30;99.90;;;;;;4177251;28;19932;-51
2022/01/22 10:04:58;;;;;;;;;;;-0.20;99.90;;;;;;4173608;28;19928;-49
2022/01/22 10:07:00;;;;;;;;;;;0.00;99.90;;;;;;4176550;28;19929;-51
2022/01/22 10:09:14;;;;;;;;;;;0.10;99.90;;;;;;4174553;28;19931;-51
2022/01/22 10:11:20;;;;;;;;;;;0.30;99.90;;;;;;4175975;28;20028;-51
2022/01/22 10:13:38;;;;;;;;;;;0.30;99.90;;;;;;4175295;28;20475;-51
2022/01/22 10:15:41;;;;;;;;;;;0.40;99.90;;;;;;4175785;28;20475;-51
2022/01/22 10:17:44;;;;;;;;;;;0.60;99.90;;;;;;4173616;28;19935;-51
2022/01/22 10:19:47;;;;;;;;;;;0.70;99.90;;;;;;4176315;28;19935;-52
2022/01/22 10:21:53;;;;;;;;;;;0.90;99.90;;;;;;4175758;28;20027;-52
2022/01/22 10:23:55;;;;;;;;;;;1.00;99.90;;;;;;4176136;28;20349;-50
2022/01/22 10:26:00;;;;;;;;;;;1.10;99.90;;;;;;4174733;28;19967;-51
2022/01/22 10:28:06;;;;;;;;;;;1.30;99.90;;;;;;4178729;28;20031;-50
2022/01/22 10:30:12;;;;;;;;;;;1.50;99.90;;;;;;4172432;28;20037;-51
2022/01/22 10:32:18;;;;;;;;;;;1.60;99.90;;;;;;4177546;28;20036;-51
2022/01/22 10:34:20;;;;;;;;;;;1.70;99.90;;;;;;4179024;28;20356;-50
2022/01/22 10:36:23;;;;;;;;;;;1.80;99.90;;;;;;4178678;28;19932;-49
2022/01/22 10:38:24;;;;;;;;;;;1.80;99.90;;;;;;4178500;28;20288;-48
2022/01/22 10:40:28;;;;;;;;;;;1.90;99.90;;;;;;4177961;28;20392;-49
2022/01/22 10:42:29;;;;;;;;;;;2.10;99.90;;;;;;4179278;28;19947;-48
2022/01/22 10:44:45;;;;;;;;;;;2.20;99.90;;;;;;4171706;28;19936;-47
2022/01/22 10:47:02;;;;;;;;;;;2.30;99.90;;;;;;4179280;28;19932;-47
2022/01/22 10:49:07;;;;;;;;;;;2.70;99.90;;;;;;4159141;28;19930;-49
2022/01/22 10:51:13;;;;;;;;;;;2.70;99.90;;;;;;4179611;28;20472;-50
2022/01/22 10:53:16;;;;;;;;;;;2.80;99.90;;;;;;4177610;28;19968;-50
2022/01/22 10:55:19;;;;;;;;;;;2.90;99.90;;;;;;4163554;28;20701;-51
2022/01/22 10:57:23;;;;;;;;;;;3.00;99.90;;;;;;4176127;28;20031;-49
2022/01/22 10:59:25;;;;;;;;;;;3.20;99.90;;;;;;4179231;28;20015;-48
2022/01/22 11:01:30;;;;;;;;;;;3.30;99.90;;;;;;4176952;28;20369;-50
2022/01/22 11:03:32;;;;;;;;;;;3.40;99.90;;;;;;4180490;28;19929;-50
2022/01/22 11:05:36;;;;;;;;;;;3.60;99.90;;;;;;4177522;28;20019;-49
2022/01/22 11:07:37;;;;;;;;;;;3.70;99.90;;;;;;4178666;28;19935;-49
2022/01/22 11:09:40;;;;;;;;;;;3.90;99.90;;;;;;4176812;28;19933;-48
2022/01/22 11:11:43;;;;;;;;;;;4.10;99.00;;;;;;4180451;28;19974;-50
2022/01/22 11:13:45;;;;;;;;;;;4.20;99.00;;;;;;4173727;28;19935;-49
2022/01/22 11:15:49;;;;;;;;;;;4.30;99.90;;;;;;4156164;28;20393;-51
2022/01/22 11:17:51;;;;;;;;;;;4.30;97.80;;;;;;4175274;28;19928;-50
2022/01/22 11:19:54;;;;;;;;;;;4.30;97.20;;;;;;4163077;28;19929;-49
2022/01/22 11:21:56;;;;;;;;;;;4.40;96.90;;;;;;4171943;28;20436;-51
2022/01/22 11:23:58;;;;;;;;;;;4.70;98.20;;;;;;4173071;28;20397;-51
2022/01/22 11:26:03;;;;;;;;;;;4.80;97.30;;;;;;4173551;28;20376;-51
2022/01/22 11:28:05;;;;;;;;;;;5.00;97.20;;;;;;4179099;28;19972;-51
2022/01/22 11:30:08;;;;;;;;;;;5.10;97.10;;;;;;4172363;28;20028;-51
2022/01/22 11:32:12;;;;;;;;;;;5.20;96.60;;;;;;4176436;28;19924;-51
2022/01/22 11:34:15;;;;;;;;;;;5.40;96.50;;;;;;4172559;28;20036;-50
2022/01/22 11:36:37;;;;;;;;;;;5.50;96.30;;;;;;4177682;28;19968;-51
2022/01/22 11:38:41;;;;;;;;;;;5.60;94.60;;;;;;4175991;28;19929;-50
2022/01/22 11:41:01;;;;;;;;;;;6.00;95.20;;;;;;4177155;28;20406;-52
2022/01/22 11:45:29;;;;;;;;;;;6.20;93.20;;;;;;4165605;28;19925;-49
2022/01/22 11:47:31;;;;;;;;;;;6.50;91.50;;;;;;4175560;28;19982;-50
2022/01/22 11:49:34;;;;;;;;;;;7.40;92.40;;;;;;4176119;28;20040;-50
2022/01/22 11:51:36;;;;;;;;;;;7.70;91.00;;;;;;4158828;28;19933;-51
2022/01/22 11:53:38;;;;;;;;;;;7.80;91.30;;;;;;4173687;28;19936;-51
2022/01/22 11:55:40;;;;;;;;;;;8.20;90.90;;;;;;4180392;28;19971;-52
2022/01/22 11:57:43;;;;;;;;;;;8.20;89.60;;;;;;4177683;28;19929;-51
2022/01/22 11:59:46;;;;;;;;;;;7.70;84.60;;;;;;4176573;28;19932;-51
2022/01/22 12:01:52;;;;;;;;;;;7.50;85.40;;;;;;4176928;28;20222;-51
2022/01/22 12:03:58;;;;;;;;;;;7.90;87.90;;;;;;4174760;28;19935;-52
2022/01/22 12:06:14;;;;;;;;;;;8.20;86.00;;;;;;4176012;28;19928;-51
2022/01/22 12:08:16;;;;;;;;;;;8.30;89.90;;;;;;4176443;28;19968;-51
2022/01/22 12:10:36;;;;;;;;;;;8.50;89.10;;;;;;4174710;28;20027;-52
2022/01/22 12:14:56;;;;;;;;;;;8.80;85.60;;;;;;4180490;28;19925;-52
2022/01/22 12:17:03;;;;;;;;;;;8.80;87.50;;;;;;4177731;28;20071;-52
2022/01/22 12:19:10;;;;;;;;;;;8.40;81.90;;;;;;4173807;28;20011;-53
2022/01/22 12:21:44;;;;;;;;;;;8.30;82.30;;;;;;4177216;28;20020;-52
2022/01/22 12:23:47;;;;;;;;;;;9.00;88.50;;;;;;4156412;28;19929;-53
2022/01/22 12:25:50;;;;;;;;;;;9.00;77.80;;;;;;4150071;28;20028;-52
2022/01/22 12:27:53;;;;;;;;;;;9.00;79.90;;;;;;4157258;28;19947;-52
2022/01/22 12:30:01;;;;;;;;;;;9.30;77.60;;;;;;4156490;28;19960;-51
2022/01/22 12:32:06;;;;;;;;;;;8.70;77.50;;;;;;4157189;28;19936;-51
2022/01/22 12:34:08;;;;;;;;;;;9.10;84.80;;;;;;4148239;28;19929;-52
2022/01/22 12:36:18;;;;;;;;;;;9.30;79.20;;;;;;4158706;28;20148;-52
2022/01/22 12:38:30;;;;;;;;;;;9.80;81.80;;;;;;4153629;28;19925;-52
2022/01/22 12:40:34;;;;;;;;;;;10.10;78.00;;;;;;4158392;28;20036;-51
2022/01/22 12:42:51;;;;;;;;;;;9.80;76.50;;;;;;4155739;28;19978;-50
2022/01/22 12:45:00;;;;;;;;;;;10.10;79.20;;;;;;4158470;28;19925;-51
2022/01/22 12:47:05;;;;;;;;;;;10.50;82.30;;;;;;4155881;28;19925;-49
2022/01/22 12:49:08;;;;;;;;;;;10.30;73.80;;;;;;4156844;28;19969;-50
2022/01/22 12:51:10;;;;;;;;;;;9.70;71.80;;;;;;4157682;28;20345;-49
2022/01/22 12:53:13;;;;;;;;;;;9.50;73.00;;;;;;4158641;28;19928;-50
2022/01/22 12:55:17;;;;;;;;;;;9.70;77.00;;;;;;4150376;28;20812;-50
2022/01/22 12:57:32;;;;;;;;;;;10.10;76.80;;;;;;4158721;28;20619;-49
2022/01/22 12:59:53;;;;;;;;;;;10.30;70.70;;;;;;4162849;28;19966;-51
2022/01/22 13:02:01;;;;;;;;;;;10.50;77.70;;;;;;4166239;28;19925;-50
2022/01/22 13:04:06;;;;;;;;;;;10.10;67.40;;;;;;4174174;28;20401;-48
2022/01/22 13:06:08;;;;;;;;;;;10.00;71.00;;;;;;4180610;28;19976;-49
2022/01/22 13:08:10;;;;;;;;;;;10.10;73.40;;;;;;4175177;28;19960;-48
2022/01/22 13:10:13;;;;;;;;;;;9.90;65.70;;;;;;4177222;28;20023;-50
2022/01/22 13:12:16;;;;;;;;;;;10.10;69.70;;;;;;4175253;28;19928;-48
2022/01/22 13:14:28;;;;;;;;;;;10.00;66.90;;;;;;4176948;28;20353;-50
2022/01/22 13:16:30;;;;;;;;;;;10.30;67.80;;;;;;4176002;28;19964;-48
2022/01/22 13:18:42;;;;;;;;;;;10.20;66.10;;;;;;4175578;28;19925;-49
2022/01/22 13:20:46;;;;;;;;;;;10.20;68.10;;;;;;4175324;28;19963;-50
2022/01/22 13:22:48;;;;;;;;;;;9.90;67.80;;;;;;4175733;28;19935;-49
2022/01/22 13:24:50;;;;;;;;;;;9.70;66.90;;;;;;4175868;28;20027;-50
2022/01/22 13:28:59;;;;;;;;;;;9.80;68.10;;;;;;4174752;28;19964;-49
2022/01/22 13:31:09;;;;;;;;;;;10.00;68.10;;;;;;4157447;28;20000;-50
2022/01/22 13:33:29;;;;;;;;;;;9.90;64.40;;;;;;4166700;28;19928;-51